AirNav   Phillips 66 Aviation Fuel
 
 1405 users online  

KASG Springdale Municipal Airport
Springdale, Arkansas, USA

GOING TO SPRINGDALE?


FAA INFORMATION EFFECTIVE 01 FEBRUARY 2018

Location

FAA Identifier: ASG
Lat/Long: 36-10-35.0000N / 094-07-09.3000W
36-10.583333N / 094-07.155000W
36.1763889 / -94.1192500
(estimated)
Elevation: 1352.5 ft. / 412.2 m (surveyed)
Variation: 04E (1995)
From city: 1 mile SE of SPRINGDALE, AR
Time zone: UTC -6 (UTC -5 during Daylight Saving Time)
Zip code: 72764

Airport Operations

Airport use: Open to the public
Activation date: 04/1944
Control tower: yes
ARTCC: MEMPHIS CENTER
FSS: JONESBORO FLIGHT SERVICE STATION
NOTAMs facility: ASG (NOTAM-D service available)
Attendance: 0600-2100
FOR SVC AFT HRS CALL 479-751-4462.
Wind indicator: lighted
Segmented circle: yes
Lights: ACTVT HIRL RY 18/36 - CTAF. WHEN ATCT CLSD ACTVT MALSF RY 18 - CTAF.
Beacon: white-green (lighted land airport)
Operates sunset to sunrise.

Airport Communications

CTAF: 118.2
UNICOM: 122.95
WX AWOS-3: 124.675 (479-750-2967)
SPRINGDALE GROUND: 121.6 [0600-2100]
SPRINGDALE TOWER: 118.2 [0600-2100]
RAZORBACK APPROACH: 126.6
RAZORBACK DEPARTURE: 126.6
WX ASOS at FYV (11 nm S): 119.575 (479-442-5237)
WX ASOS at XNA (11 nm NW): 119.425 (479-203-0109)
WX AWOS-3PT at VBT (11 nm NW): 134.975 (479-273-9198)
WX AWOS-3PT at ROG (12 nm N): 134.375 (479-631-9196)
WX AWOS-3PT at SLG (18 nm W): 118.375 (479-524-9893)
  • APCH/DEP SVC PRVDD BY MEMPHIS ARTCC ON FREQS 126.1/269.0 (FAYETTEVILLE RCAG) WHEN RAZORBACK APCH CTL CLSD.

Nearby radio navigation aids

VOR radial/distance  VOR name  Freq  Var
RZCr175/4.2RAZORBACK VORTAC116.4004E
DAKr018/8.9DRAKE VOR/DME115.2507E

 
NDB name  Hdg/Dist  Freq  Var  ID
SILOAM SPRINGS088/17.928404ESLG ... .-.. --.

Airport Services

Fuel available: 100LL JET-A
100LL AVBL 24 HRS SELF SERVE WITH CREDIT CARD.
Parking: hangars and tiedowns
Airframe service: MAJOR
Powerplant service: MAJOR
Bottled oxygen: LOW
Bulk oxygen: NONE

Runway Information

Runway 18/36

Dimensions: 5302 x 76 ft. / 1616 x 23 m
Surface: asphalt, in good condition
Weight bearing capacity: 
Single wheel: 35.0
Double wheel: 50.0
Double tandem: 90.0
Runway edge lights: high intensity
RUNWAY 18  RUNWAY 36
Latitude: 36-11.017568N36-10.150460N
Longitude: 094-07.088313W094-07.221405W
Elevation: 1339.2 ft.1352.4 ft.
Gradient: 0.3%0.3%
Traffic pattern: leftleft
Runway heading: 183 magnetic, 187 true003 magnetic, 007 true
Displaced threshold: 363 ft.no
Markings: precision, in fair conditionprecision, in fair condition
Visual slope indicator: 4-light PAPI on left (3.00 degrees glide path)2-box VASI on left (3.00 degrees glide path)
Approach lights: MALSF: 1,400 foot medium intensity approach lighting system with sequenced flashers
Touchdown point: yes, no lightsyes, no lights
Instrument approach: ILS
Obstructions: none
APCH RATIO 50:1 FM DSPLCD THR.
40 ft. trees, 1750 ft. from runway, 400 ft. left of centerline, 38:1 slope to clear

Airport Ownership and Management from official FAA records

Ownership: Publicly-owned
Owner: CITY OF SPRINGDALE
CITY HALL, 201 SPRING ST
SPRINGDALE, AR 72764
Phone 479-750-8114
Manager: JAMES SMITH
802 AIRPORT ROAD
SPRINGDALE, AR 72765
Phone 479-750-8585

Airport Operational Statistics

Aircraft based on the field: 101
Single engine airplanes: 66
Multi engine airplanes: 20
Jet airplanes: 6
Helicopters: 5
Gliders airplanes: 1
Ultralights: 3
    
Aircraft operations: avg 171/day *
48% transient general aviation
45% local general aviation
7% air taxi
<1% military
* for 12-month period ending 31 May 2015

Instrument Procedures

NOTE: All procedures below are presented as PDF files. If you need a reader for these files, you should download the free Adobe Reader.

NOT FOR NAVIGATION. Please procure official charts for flight.
FAA instrument procedures published for use between 1 February 2018 at 0901Z and 1 March 2018 at 0900Z.

 
IAPs - Instrument Approach Procedures
ILS OR LOC RWY 18   download (293KB)
RNAV (GPS) RWY 18   download (289KB)
RNAV (GPS) RWY 36   download (239KB)
VOR/DME RWY 36   download (237KB)
NOTE: Special Alternate Minimums apply   download (33KB)
 
Departure Procedures
SPRING FOUR   download (237KB)
NOTE: Special Take-Off Minimums/Departure Procedures apply   download (131KB)

Other nearby airports with instrument procedures:

KFYV - Drake Field Airport (11 nm S)
KXNA - Northwest Arkansas Regional Airport (11 nm NW)
KVBT - Bentonville Municipal Airport/Louise M Thaden Field (11 nm NW)
KROG - Rogers Executive Airport - Carter Field (12 nm N)
KSLG - Smith Field Airport (18 nm W)
H34 - Huntsville Municipal Airport (19 nm E)
5M5 - Crystal Lake Airport (19 nm NW)
 
Loc | Ops | Rwys | IFR | FBO | Links
Com | Nav | Svcs | Stats | Notes

Fly Arkansas
AirBoss

 
Area around KASG (Springdale Municipal Airport)
 
Road maps at: MapQuest Bing Google
 
Aerial photo
WARNING: Photo may not be current or correct
Aerial photo of KASG (Springdale Municipal Airport)
Photo taken 19-May-2008

Do you have a better or more recent aerial photo of Springdale Municipal Airport that you would like to share? If so, please send us your photo.

 
Sectional chart

 
Airport diagram
CAUTION: Diagram may not be current
Diagram of KASG (Springdale Municipal Airport)
Download PDF
of official airport diagram from the FAA

 
Airport distance calculator
Flying to Springdale Municipal Airport? Find the distance to fly.

From to KASG

Sunrise and sunset
Times for 19-Feb-2018
 Local
(UTC-6)
 Zulu
(UTC)
Morning civil twilight06:3412:34
Sunrise07:0013:00
Sunset18:0000:00
Evening civil twilight18:2600:26

Current date and time
Zulu (UTC)  19-Feb-2018 18:06:37
Local (UTC-6)  19-Feb-2018 12:06:37
 
METAR
KASG 191748Z 19010G20KT 9SM BKN014 OVC022 17/17 A2989
KFYV 
10nm S 
191753Z 18013G20KT 3SM -RA BR SCT012 BKN024 OVC037 17/17 A2988 RMK AO2 RAE12B44 SLP112 P0000 60010 T01670167 10172 20150 58001
KXNA 
11nm NW 
191753Z 19019G26KT 8SM OVC012 17/17 A2985 RMK AO2 PK WND 19026/1753 RAB41E48 SLP100 P0000 60010 T01720167 10172 20161 50001
KVBT 
11nm NW 
191756Z AUTO 18018G25KT 10SM OVC012 17/16 A2986 RMK AO2 SLP110 60008 T01720156 10172 20156 58003
KROG 
12nm N 
191758Z 17016G22KT 10SM -RA OVC012 17/16 A2985 RMK AO2 RAB52 SLP103 P0000 60018 T01720161 10172 20161 58002
KSLG 
17nm W 
191756Z AUTO 18019G24KT 10SM OVC010 17/16 A2985 RMK AO2 SLP105 6//// T01720161 10178 20156 58002
TAF
KFYV 
10nm S 
191726Z 1918/2018 17014G20KT P6SM VCSH BKN025 OVC035 TEMPO 1918/1922 BKN015 FM192200 18013G21KT P6SM OVC025 TEMPO 2004/2008 3SM TSRA OVC012CB FM200800 18012G20KT 5SM RA OVC010 TEMPO 2008/2012 2SM TSRA OVC012CB FM201200 20014G22KT 5SM TSRA OVC010CB
KXNA 
11nm NW 
191726Z 1918/2018 18017G24KT P6SM BKN025 BKN035 TEMPO 1918/1922 BKN015 FM192200 18013G21KT P6SM OVC025 TEMPO 2004/2008 3SM TSRA OVC012CB FM200800 18012G20KT 5SM RA OVC010 TEMPO 2008/2012 2SM TSRA OVC012CB FM201200 20014G22KT 5SM TSRA OVC010CB
KROG 
12nm N 
191726Z 1918/2018 17019G25KT P6SM -RA VCSH OVC011 TEMPO 1918/1922 BKN015 FM192200 17016G28KT P6SM OVC025 TEMPO 2004/2008 3SM TSRA OVC012CB FM200800 18014G22KT 5SM RA OVC010 TEMPO 2008/2012 2SM TSRA OVC012CB FM201200 18015G22KT 5SM TSRA OVC010CB
NOTAMs
Click for the latest NOTAMs
NOTAMs are issued by the DoD/FAA and will open in a separate window not controlled by AirNav.

 

 
 

FBO, Fuel Providers, and Aircraft Ground Support

  
 Business Name 
 
 Contact 
 
 Services / Description 
 
Fuel Prices
 
Comments
  
Summit Aviation 479-751-4462
[web site]
[email]
No Landing Fees, No Facility Fees, No Ramp Fees less than 8 Hours or Waived with Fuel Purchase, Contract Fuel Rates!

FREE Popcorn, Nachos, Cookies & Ice Cream
More info and photos of Summit Aviation
 
U.S. Government AIR Card   CAA Preferred FBO   Contract Fuel   Crew cars   Enterprise Rent-A-Car   Hertz   Certificated Pilot School  
 
Shell
100LL Jet A
FS $4.90 $4.58 
SS $4.12 --- 
 Updated 13-Feb-2018
 
   12 read write
FS=Full service
SS=Self service
Update Fuel Prices
 

Would you like to see your business listed on this page?

 If your business provides an interesting product or service to pilots, flight crews, aircraft, or users of the Springdale Municipal Airport, you should consider listing it here.  To start the listing process, click on the button below
 
Add a business
 

Other Pages about Springdale Municipal Airport

Update a link
 
Copyright © AirNav, LLC. All rights reserved. Privacy Policy  Contact